createdAt,value
2018-10-02T00:00:57.132Z,72.80
2018-10-02T00:06:00.415Z,72.36
2018-10-02T00:11:09.028Z,72.49
2018-10-02T00:16:12.327Z,72.86
2018-10-02T00:21:15.641Z,72.60
2018-10-02T00:26:18.931Z,72.66
2018-10-02T00:31:22.256Z,72.16
2018-10-02T00:36:25.624Z,72.67
2018-10-02T00:41:28.940Z,72.57
2018-10-02T00:46:32.500Z,72.55
2018-10-02T00:51:35.816Z,72.45
2018-10-02T00:56:39.124Z,72.29
2018-10-02T01:01:42.396Z,72.34
2018-10-02T01:06:45.691Z,72.09
2018-10-02T01:11:48.979Z,72.50
2018-10-02T01:16:52.269Z,72.35
2018-10-02T01:21:55.536Z,72.21
2018-10-02T01:26:58.823Z,71.75
2018-10-02T01:32:02.120Z,72.16
2018-10-02T01:37:05.415Z,72.44
2018-10-02T01:42:08.740Z,72.17
2018-10-02T01:47:12.027Z,72.14
2018-10-02T01:52:15.315Z,72.49
2018-10-02T01:57:18.588Z,72.94
2018-10-02T02:02:21.875Z,73.32
2018-10-02T02:07:25.165Z,73.70
2018-10-02T02:12:28.471Z,73.60
2018-10-02T02:17:31.780Z,73.74
2018-10-02T02:22:35.128Z,73.72
2018-10-02T02:27:38.412Z,73.71
2018-10-02T02:32:41.696Z,74.25
2018-10-02T02:37:45.048Z,74.55
2018-10-02T02:42:48.295Z,74.85
2018-10-02T02:47:56.984Z,75.16
2018-10-02T02:53:04.053Z,74.62
2018-10-02T02:58:07.337Z,75.12
2018-10-02T03:03:10.623Z,74.97
2018-10-02T03:08:13.905Z,74.53
2018-10-02T03:13:17.176Z,74.57
2018-10-02T03:18:20.488Z,74.77
2018-10-02T03:23:23.800Z,74.62
2018-10-02T03:28:27.092Z,74.76
2018-10-02T03:33:30.420Z,74.42
2018-10-02T03:38:33.719Z,74.84
2018-10-02T03:43:37.017Z,75.05
2018-10-02T03:48:40.321Z,75.17
2018-10-02T03:53:43.607Z,74.71
2018-10-02T03:58:46.892Z,74.75
2018-10-02T04:03:50.191Z,73.98
2018-10-02T04:08:53.515Z,73.73
2018-10-02T04:13:56.921Z,72.95
2018-10-02T04:19:00.251Z,72.80
2018-10-02T04:24:05.172Z,72.82
2018-10-02T04:29:08.508Z,72.91
2018-10-02T04:34:11.863Z,72.77
2018-10-02T04:39:15.077Z,72.99
2018-10-02T04:44:18.343Z,73.27
2018-10-02T04:49:21.643Z,72.91
2018-10-02T04:54:24.972Z,72.15
2018-10-02T04:59:28.550Z,71.84
2018-10-02T05:04:31.863Z,71.21
2018-10-02T05:09:35.160Z,71.09
2018-10-02T05:14:38.449Z,70.83
2018-10-02T05:19:41.805Z,71.13
2018-10-02T05:24:45.113Z,71.41
2018-10-02T05:29:48.417Z,71.12
2018-10-02T05:34:51.783Z,70.22
2018-10-02T05:39:55.040Z,69.96
2018-10-02T05:44:58.304Z,69.59
2018-10-02T05:50:01.589Z,69.49
2018-10-02T05:55:05.865Z,69.07
2018-10-02T06:00:09.266Z,68.93
2018-10-02T06:05:12.580Z,68.51
2018-10-02T06:10:15.873Z,69.07
2018-10-02T06:15:19.168Z,68.95
2018-10-02T06:20:22.452Z,69.39
2018-10-02T06:25:25.745Z,69.42
2018-10-02T06:30:29.109Z,68.52
2018-10-02T06:35:32.362Z,68.28
2018-10-02T06:40:35.667Z,67.77
2018-10-02T06:45:38.977Z,66.56
2018-10-02T06:50:42.282Z,66.53
2018-10-02T06:55:45.564Z,65.36
2018-10-02T07:00:48.949Z,65.29
2018-10-02T07:05:52.229Z,65.18
2018-10-02T07:10:55.510Z,65.30
2018-10-02T07:15:58.783Z,64.17
2018-10-02T07:21:02.100Z,63.68
2018-10-02T07:26:05.368Z,63.38
2018-10-02T07:31:08.738Z,63.66
2018-10-02T07:36:11.976Z,63.53
2018-10-02T07:41:15.249Z,62.59
2018-10-02T07:46:18.545Z,62.08
2018-10-02T07:51:21.821Z,61.60
2018-10-02T07:56:25.162Z,60.90
2018-10-02T08:01:28.454Z,59.42
2018-10-02T08:06:31.741Z,59.69
2018-10-02T08:11:35.026Z,59.92
2018-10-02T08:16:38.805Z,58.88
2018-10-02T08:21:42.081Z,59.92
2018-10-02T08:26:45.433Z,58.80
2018-10-02T08:31:48.689Z,57.47
2018-10-02T08:36:51.970Z,57.15
2018-10-02T08:41:55.314Z,56.95
2018-10-02T08:46:58.581Z,56.85
2018-10-02T08:52:01.907Z,56.32
2018-10-02T08:57:05.500Z,55.68
2018-10-02T09:02:08.793Z,54.64
2018-10-02T09:07:12.077Z,54.31
2018-10-02T09:12:15.368Z,55.83
2018-10-02T09:17:18.652Z,54.75
2018-10-02T09:22:21.941Z,53.44
2018-10-02T09:27:25.236Z,53.30
2018-10-02T09:32:33.750Z,52.92
2018-10-02T09:37:42.413Z,52.10
2018-10-02T09:42:51.015Z,51.70
2018-10-02T09:47:54.341Z,52.36
2018-10-02T09:52:57.628Z,51.47
2018-10-02T09:58:00.953Z,50.40
2018-10-02T10:03:04.343Z,50.37
2018-10-02T10:08:07.584Z,51.31
2018-10-02T10:13:10.874Z,52.50
2018-10-02T10:18:14.148Z,52.42
2018-10-02T10:23:17.445Z,53.44
2018-10-02T10:28:20.737Z,55.17
2018-10-02T10:33:24.035Z,55.80
2018-10-02T10:38:27.384Z,56.47
2018-10-02T10:43:30.698Z,56.52
2018-10-02T10:48:33.978Z,57.02
2018-10-02T10:53:37.288Z,56.92
2018-10-02T10:58:40.680Z,56.68
2018-10-02T11:03:43.921Z,58.03
2018-10-02T11:08:47.260Z,56.69
2018-10-02T11:13:50.598Z,55.45
2018-10-02T11:18:53.905Z,56.08
2018-10-02T11:23:57.410Z,56.10
2018-10-02T11:29:00.716Z,56.82
2018-10-02T11:34:04.005Z,56.58
2018-10-02T11:39:07.309Z,58.77
2018-10-02T11:44:10.651Z,61.22
2018-10-02T11:49:13.992Z,62.08
2018-10-02T11:54:17.240Z,63.54
2018-10-02T11:59:20.558Z,61.85
2018-10-02T12:04:23.853Z,62.41
2018-10-02T12:09:27.247Z,61.94
2018-10-02T12:14:30.772Z,61.68
2018-10-02T12:19:34.108Z,61.43
2018-10-02T12:24:37.317Z,60.33
2018-10-02T12:29:40.616Z,60.06
2018-10-02T12:34:43.916Z,60.26
2018-10-02T12:39:48.275Z,58.50
2018-10-02T12:44:51.640Z,57.51
2018-10-02T12:49:54.996Z,57.92
2018-10-02T12:54:58.316Z,58.44
2018-10-02T13:00:01.625Z,59.18
2018-10-02T13:05:05.875Z,60.34
2018-10-02T13:10:09.246Z,61.37
2018-10-02T13:15:12.544Z,60.60
2018-10-02T13:20:15.873Z,60.36
2018-10-02T13:25:19.241Z,60.40
2018-10-02T13:30:22.604Z,61.12
2018-10-02T13:35:25.908Z,60.90
2018-10-02T13:40:29.225Z,61.16
2018-10-02T13:45:32.719Z,61.33
2018-10-02T13:50:36.011Z,61.75
2018-10-02T13:55:39.350Z,62.12
2018-10-02T14:00:43.252Z,63.32
2018-10-02T14:05:46.576Z,65.00
2018-10-02T14:10:49.967Z,65.06
2018-10-02T14:15:53.585Z,66.82
2018-10-02T14:20:56.891Z,67.84
2018-10-02T14:31:27.701Z,66.83
2018-10-02T14:36:31.062Z,66.45
2018-10-02T14:41:34.360Z,66.50
2018-10-02T14:46:38.479Z,65.47
2018-10-02T14:51:42.198Z,64.59
2018-10-02T14:56:45.555Z,64.92
2018-10-02T15:01:49.329Z,64.73
2018-10-02T15:06:53.004Z,64.42
2018-10-02T15:11:56.413Z,64.74
2018-10-02T15:16:59.785Z,63.79
2018-10-02T15:22:03.263Z,64.04
2018-10-02T15:27:06.651Z,64.44
2018-10-02T15:32:09.967Z,64.27
2018-10-02T15:37:13.284Z,63.62
2018-10-02T15:42:16.681Z,64.00
2018-10-02T15:47:19.984Z,64.56
2018-10-02T15:52:23.404Z,63.88
2018-10-02T15:57:26.762Z,63.88
2018-10-02T16:02:30.149Z,63.64
2018-10-02T16:07:33.453Z,64.30
2018-10-02T16:12:36.872Z,64.12
2018-10-02T16:17:40.264Z,64.74
2018-10-02T16:22:43.729Z,64.40
2018-10-02T16:27:47.145Z,64.48
2018-10-02T16:32:50.472Z,65.08
2018-10-02T16:37:53.908Z,67.54
2018-10-02T16:42:57.268Z,70.53
2018-10-02T16:48:00.661Z,70.90
2018-10-02T16:53:04.000Z,71.99
2018-10-02T16:58:07.578Z,73.38
2018-10-02T17:03:10.951Z,73.97
2018-10-02T17:08:14.299Z,74.93
2018-10-02T17:13:17.665Z,76.00
2018-10-02T17:18:21.077Z,74.86
2018-10-02T17:23:24.677Z,74.95
2018-10-02T17:28:28.888Z,73.66
2018-10-02T17:33:33.763Z,71.94
2018-10-02T17:38:37.301Z,70.82
2018-10-02T17:43:40.593Z,70.74
2018-10-02T17:48:43.905Z,70.66
2018-10-02T17:53:47.268Z,70.44
2018-10-02T17:58:50.829Z,70.96
2018-10-02T18:03:54.270Z,71.00
2018-10-02T18:08:57.595Z,71.55
2018-10-02T18:14:00.896Z,72.14
2018-10-02T18:19:05.080Z,71.96
2018-10-02T18:24:08.474Z,71.85
2018-10-02T18:29:12.117Z,72.16
2018-10-02T18:34:15.482Z,72.16
2018-10-02T18:39:18.888Z,72.29
2018-10-02T18:44:22.334Z,72.03
2018-10-02T18:49:25.696Z,72.12
2018-10-02T18:54:29.046Z,72.05
2018-10-02T18:59:32.473Z,71.75
2018-10-02T19:04:35.888Z,71.94
2018-10-02T19:09:39.233Z,71.44
2018-10-02T19:14:42.530Z,71.58
2018-10-02T19:19:52.987Z,71.51
2018-10-02T19:25:01.765Z,71.21
2018-10-02T19:30:11.084Z,71.09
2018-10-02T19:35:15.202Z,71.19
2018-10-02T19:40:18.713Z,70.85
2018-10-02T19:45:27.384Z,71.59
2018-10-02T19:50:30.697Z,71.06
2018-10-02T19:55:34.140Z,71.15
2018-10-02T20:00:37.672Z,70.93
2018-10-02T20:05:40.980Z,71.39
2018-10-02T20:10:44.300Z,71.37
2018-10-02T20:15:47.802Z,71.33
2018-10-02T20:20:51.096Z,71.91
2018-10-02T20:25:54.654Z,72.12
2018-10-02T20:30:58.362Z,71.96
2018-10-02T20:36:01.930Z,71.85
2018-10-02T20:41:05.384Z,72.01
2018-10-02T20:46:08.756Z,72.27
2018-10-02T20:51:12.162Z,72.66
2018-10-02T20:56:15.559Z,72.58
2018-10-02T21:01:19.004Z,72.32
2018-10-02T21:06:22.319Z,72.35
2018-10-02T21:11:25.815Z,72.39
2018-10-02T21:16:29.301Z,72.44
2018-10-02T21:21:32.761Z,72.57
2018-10-02T21:26:36.045Z,72.88
2018-10-02T21:31:39.688Z,73.29
2018-10-02T21:36:43.216Z,72.91
2018-10-02T21:41:46.552Z,73.24
2018-10-02T21:46:49.879Z,73.08
2018-10-02T21:51:53.351Z,72.68
2018-10-02T21:56:56.837Z,72.78
2018-10-02T22:02:00.255Z,73.12
2018-10-02T22:07:03.709Z,72.72
2018-10-02T22:12:07.106Z,73.02
2018-10-02T22:17:10.489Z,72.77
2018-10-02T22:22:13.840Z,72.74
2018-10-02T22:27:17.136Z,72.83
2018-10-02T22:32:20.544Z,73.27
2018-10-02T22:37:23.909Z,73.03
2018-10-02T22:42:27.389Z,73.00
2018-10-02T22:47:30.812Z,73.04
2018-10-02T22:52:34.432Z,72.56
2018-10-02T22:57:37.976Z,72.13
2018-10-02T23:02:41.301Z,72.05
2018-10-02T23:07:44.601Z,71.86
2018-10-02T23:12:47.921Z,72.28
2018-10-02T23:17:51.253Z,71.80
2018-10-02T23:22:54.593Z,72.37
2018-10-02T23:27:57.887Z,72.08
2018-10-02T23:33:01.189Z,72.25
2018-10-02T23:38:04.504Z,72.62
2018-10-02T23:43:07.888Z,72.24
2018-10-02T23:48:11.189Z,72.83
2018-10-02T23:53:14.511Z,72.78
2018-10-02T23:58:17.855Z,72.62
